Time;durP1;ratioP1;P1;durP2;ratioP2;P2;SDS_P1;SDS_P2;PMS_P1;PMS_P2;Temp;Humidity;BMP_temperature;BMP_pressure;BME280_temperature;BME280_humidity;BME280_pressure;Samples;Min_cycle;Max_cycle;Signal;HPM_P1;HPM_P2
2021/11/28 00:00:06;;;;;;;31.00;16.05;;;;;;;0.04;100.00;98765.50;7392340;19;20182;-51
2021/11/28 00:02:35;;;;;;;31.55;16.08;;;;;;;-0.02;100.00;98763.47;7399085;19;20119;-53
2021/11/28 00:05:07;;;;;;;28.20;15.02;;;;;;;0.03;100.00;98767.13;7395548;19;20178;-43
2021/11/28 00:07:50;;;;;;;30.50;15.98;;;;;;;0.04;100.00;98768.88;7403305;19;20175;-44
2021/11/28 00:10:41;;;;;;;28.90;15.68;;;;;;;0.00;100.00;98761.91;7401994;19;20186;-43
2021/11/28 00:13:24;;;;;;;33.30;16.27;;;;;;;-0.05;100.00;98764.19;7406191;19;20183;-48
2021/11/28 00:15:53;;;;;;;33.10;16.33;;;;;;;0.00;100.00;98767.00;7400198;19;20190;-43
2021/11/28 00:18:23;;;;;;;32.25;16.40;;;;;;;-0.02;100.00;98761.84;7406270;19;20183;-49
2021/11/28 00:20:53;;;;;;;31.35;17.10;;;;;;;-0.01;100.00;98760.16;7402192;19;20254;-49
2021/11/28 00:23:22;;;;;;;33.67;16.63;;;;;;;0.06;100.00;98762.22;7407630;19;20139;-44
2021/11/28 00:25:52;;;;;;;40.90;19.75;;;;;;;0.33;100.00;98768.63;7401188;19;20237;-45
2021/11/28 00:28:25;;;;;;;29.48;15.50;;;;;;;0.17;100.00;98764.44;7405735;19;20517;-46
2021/11/28 00:30:55;;;;;;;42.60;20.58;;;;;;;0.34;100.00;98760.22;7400610;19;20208;-44
2021/11/28 00:33:24;;;;;;;39.22;20.20;;;;;;;0.36;100.00;98766.25;7405986;19;20197;-48
2021/11/28 00:35:53;;;;;;;34.05;17.08;;;;;;;0.30;100.00;98768.50;7400593;19;20599;-46
2021/11/28 00:38:23;;;;;;;33.70;16.65;;;;;;;0.14;100.00;98760.06;7405610;19;20401;-45
2021/11/28 00:40:53;;;;;;;34.88;17.70;;;;;;;0.10;100.00;98758.19;7401540;19;20652;-46
2021/11/28 00:43:25;;;;;;;36.28;16.58;;;;;;;0.17;100.00;98764.44;7405216;19;20123;-45
2021/11/28 00:45:55;;;;;;;38.03;18.20;;;;;;;0.31;100.00;98767.69;7399238;19;20246;-45
2021/11/28 00:48:28;;;;;;;33.13;17.30;;;;;;;0.16;100.00;98762.69;7405059;19;20134;-47
2021/11/28 00:51:21;;;;;;;34.53;16.90;;;;;;;0.10;100.00;98766.66;7402386;19;20197;-46
2021/11/28 00:53:52;;;;;;;33.63;16.60;;;;;;;0.13;100.00;98766.84;7405894;19;20550;-44
2021/11/28 00:56:22;;;;;;;32.83;16.90;;;;;;;0.14;100.00;98765.16;7399641;19;20246;-47
2021/11/28 00:58:54;;;;;;;34.47;16.98;;;;;;;0.17;100.00;98766.97;7404866;19;20183;-44
2021/11/28 01:01:24;;;;;;;34.45;16.73;;;;;;;0.16;100.00;98768.66;7400682;19;20389;-44
2021/11/28 01:03:53;;;;;;;34.60;17.73;;;;;;;0.11;100.00;98772.63;7405256;19;20143;-46
2021/11/28 01:06:23;;;;;;;31.75;16.35;;;;;;;0.10;100.00;98773.41;7397192;19;20201;-43
2021/11/28 01:08:52;;;;;;;35.90;16.98;;;;;;;0.10;100.00;98774.25;7404387;19;20129;-43
2021/11/28 01:11:24;;;;;;;35.55;17.75;;;;;;;0.11;100.00;98780.22;7400170;19;20196;-43
2021/11/28 01:13:56;;;;;;;35.00;16.90;;;;;;;0.06;100.00;98785.03;7404754;19;20126;-48
2021/11/28 01:16:26;;;;;;;33.88;16.75;;;;;;;0.08;100.00;98778.41;7398517;19;20576;-44
2021/11/28 01:18:55;;;;;;;30.50;15.80;;;;;;;0.06;100.00;98782.50;7404286;19;20119;-43
2021/11/28 01:21:26;;;;;;;37.55;18.30;;;;;;;0.12;100.00;98780.28;7400083;19;20199;-49
2021/11/28 01:23:55;;;;;;;32.78;17.00;;;;;;;0.18;100.00;98778.84;7403890;19;20127;-46
2021/11/28 01:26:27;;;;;;;31.85;17.05;;;;;;;0.22;100.00;98784.19;7398421;19;20194;-45
2021/11/28 01:28:59;;;;;;;36.83;19.02;;;;;;;0.14;100.00;98793.03;7403701;19;20119;-46
2021/11/28 01:31:28;;;;;;;32.65;16.27;;;;;;;0.17;100.00;98790.69;7399524;19;20186;-48
2021/11/28 01:33:58;;;;;;;35.67;17.08;;;;;;;0.23;100.00;98790.13;7403623;19;20142;-47
2021/11/28 01:36:27;;;;;;;36.95;16.83;;;;;;;0.24;100.00;98786.78;7396291;19;20318;-45
2021/11/28 01:38:57;;;;;;;34.05;16.80;;;;;;;0.22;100.00;98793.44;7403319;19;20130;-48
2021/11/28 01:41:26;;;;;;;31.40;15.23;;;;;;;0.23;100.00;98800.28;7399185;19;20182;-49
2021/11/28 01:43:58;;;;;;;35.30;17.05;;;;;;;0.32;100.00;98793.16;7403394;19;20179;-46
2021/11/28 01:46:28;;;;;;;33.90;16.52;;;;;;;0.19;100.00;98788.22;7397676;19;20194;-50
2021/11/28 01:48:58;;;;;;;33.42;16.40;;;;;;;0.31;100.00;98793.91;7403179;19;20135;-53
2021/11/28 01:51:28;;;;;;;33.28;16.67;;;;;;;0.30;100.00;98796.41;7399611;19;20190;-53
2021/11/28 01:53:58;;;;;;;35.08;16.92;;;;;;;0.32;100.00;98800.75;7403441;19;20123;-49
2021/11/28 01:56:28;;;;;;;31.20;16.67;;;;;;;0.38;100.00;98795.13;7397440;19;20205;-52
2021/11/28 01:59:00;;;;;;;29.60;15.15;;;;;;;0.43;100.00;98797.88;7402896;19;20181;-50
2021/11/28 02:01:30;;;;;;;32.85;16.17;;;;;;;0.42;100.00;98797.03;7398775;19;20209;-51
2021/11/28 02:04:00;;;;;;;35.50;16.60;;;;;;;0.58;100.00;98797.78;7402721;19;20148;-52
2021/11/28 02:06:30;;;;;;;31.67;16.23;;;;;;;0.40;100.00;98802.00;7396225;19;20194;-52
2021/11/28 02:08:59;;;;;;;33.00;15.68;;;;;;;0.41;100.00;98795.25;7402278;19;20123;-44
2021/11/28 02:11:29;;;;;;;32.03;16.25;;;;;;;0.27;100.00;98799.66;7396217;19;20194;-44
2021/11/28 02:14:02;;;;;;;34.50;17.92;;;;;;;0.39;100.00;98801.94;7402240;19;20429;-44
2021/11/28 02:16:33;;;;;;;34.28;17.00;;;;;;;0.43;100.00;98792.81;7396602;19;20238;-44
2021/11/28 02:19:02;;;;;;;32.95;17.05;;;;;;;0.52;100.00;98785.66;7402203;19;20140;-45
2021/11/28 02:21:35;;;;;;;36.13;16.42;;;;;;;0.44;100.00;98780.19;7395238;19;20187;-43
2021/11/28 02:24:04;;;;;;;39.10;17.08;;;;;;;0.54;100.00;98776.44;7402035;19;20123;-44
2021/11/28 02:26:34;;;;;;;34.70;16.73;;;;;;;0.59;100.00;98784.28;7400141;19;20198;-44
2021/11/28 02:29:03;;;;;;;37.50;17.10;;;;;;;0.53;100.00;98779.78;7401171;19;20149;-45
2021/11/28 02:31:33;;;;;;;39.33;17.92;;;;;;;0.58;100.00;98775.81;7397884;19;20186;-45
2021/11/28 02:34:02;;;;;;;38.08;16.35;;;;;;;0.47;100.00;98776.94;7401761;19;20370;-47
2021/11/28 02:36:34;;;;;;;38.95;17.20;;;;;;;0.65;100.00;98772.78;7395978;19;20201;-45
2021/11/28 02:39:04;;;;;;;37.35;17.48;;;;;;;0.63;100.00;98771.84;7401395;19;20385;-45
2021/11/28 02:41:34;;;;;;;39.42;17.23;;;;;;;0.59;100.00;98764.88;7393674;19;20204;-45
2021/11/28 02:44:03;;;;;;;36.70;16.67;;;;;;;0.58;100.00;98773.28;7401463;19;20424;-43
2021/11/28 02:46:32;;;;;;;39.83;17.17;;;;;;;0.62;100.00;98780.22;7394960;19;20186;-45
2021/11/28 02:49:02;;;;;;;36.38;17.90;;;;;;;0.74;100.00;98766.41;7401204;19;20123;-46
2021/11/28 02:51:34;;;;;;;33.80;16.67;;;;;;;0.72;100.00;98776.47;7397691;19;20236;-48
2021/11/28 02:54:04;;;;;;;38.65;17.90;;;;;;;0.72;100.00;98780.72;7401137;19;20170;-45
2021/11/28 02:56:34;;;;;;;35.17;16.88;;;;;;;0.73;100.00;98774.84;7394325;19;20592;-47
2021/11/28 02:59:04;;;;;;;35.97;17.48;;;;;;;0.60;100.00;98781.84;7400837;19;20123;-45
2021/11/28 03:01:34;;;;;;;37.33;16.60;;;;;;;0.67;100.00;98778.81;7400078;19;20665;-47
2021/11/28 03:04:04;;;;;;;31.20;15.55;;;;;;;0.69;100.00;98788.16;7400901;19;20119;-45
2021/11/28 03:06:36;;;;;;;39.65;17.55;;;;;;;0.78;100.00;98781.00;7394823;19;20254;-47
2021/11/28 03:09:07;;;;;;;44.95;19.40;;;;;;;0.74;100.00;98780.00;7400326;19;20229;-51
2021/11/28 03:11:36;;;;;;;36.85;16.23;;;;;;;0.74;100.00;98780.00;7396500;19;20216;-47
2021/11/28 03:14:06;;;;;;;38.55;18.40;;;;;;;0.71;100.00;98779.81;7400444;19;20123;-47
2021/11/28 03:16:36;;;;;;;38.78;17.80;;;;;;;0.70;100.00;98780.63;7395344;19;20191;-50
2021/11/28 03:19:05;;;;;;;40.35;17.83;;;;;;;0.80;100.00;98787.03;7400070;19;20119;-46
2021/11/28 03:21:38;;;;;;;36.17;17.30;;;;;;;0.77;100.00;98785.22;7392455;19;20454;-47
2021/11/28 03:24:09;;;;;;;38.95;16.67;;;;;;;0.75;100.00;98778.31;7400188;19;20518;-47
2021/11/28 03:26:40;;;;;;;39.45;18.90;;;;;;;0.75;100.00;98775.78;7392672;19;20197;-48
2021/11/28 03:29:12;;;;;;;36.03;16.70;;;;;;;0.78;100.00;98781.00;7399848;19;20572;-48
2021/11/28 03:31:44;;;;;;;38.70;18.05;;;;;;;0.77;100.00;98781.81;7398038;19;20238;-45
2021/11/28 03:34:15;;;;;;;41.42;18.50;;;;;;;0.90;100.00;98776.53;7399990;19;20141;-44
2021/11/28 03:36:50;;;;;;;36.97;16.77;;;;;;;0.76;100.00;98777.50;7394322;19;20506;-46
2021/11/28 03:39:21;;;;;;;36.78;16.73;;;;;;;0.79;100.00;98773.47;7397081;19;20427;-44
2021/11/28 03:41:55;;;;;;;40.80;19.05;;;;;;;0.80;100.00;98777.75;7395530;19;20253;-43
2021/11/28 03:44:26;;;;;;;39.50;18.50;;;;;;;0.81;100.00;98781.16;7399719;19;20119;-44
2021/11/28 03:46:56;;;;;;;39.85;17.60;;;;;;;0.83;100.00;98777.03;7393705;19;20249;-45
2021/11/28 03:49:25;;;;;;;36.78;17.38;;;;;;;0.79;100.00;98777.66;7399242;19;20462;-45
2021/11/28 03:51:57;;;;;;;38.22;17.92;;;;;;;0.77;100.00;98789.44;7395228;19;20179;-45
2021/11/28 03:54:27;;;;;;;38.35;17.30;;;;;;;0.70;100.00;98783.16;7401115;19;20529;-46
2021/11/28 03:56:56;;;;;;;35.97;15.98;;;;;;;0.70;100.00;98782.28;7391586;19;20186;-43
2021/11/28 03:59:26;;;;;;;48.53;18.15;;;;;;;0.76;100.00;98787.66;7398991;19;20190;-46
2021/11/28 04:01:55;;;;;;;42.35;18.23;;;;;;;0.79;100.00;98785.28;7395380;19;20242;-47
2021/11/28 04:04:25;;;;;;;39.28;18.52;;;;;;;0.86;100.00;98787.31;7399081;19;20142;-49
2021/11/28 04:06:57;;;;;;;37.50;17.33;;;;;;;0.84;100.00;98791.47;7392947;19;20196;-47
2021/11/28 04:09:27;;;;;;;42.28;18.33;;;;;;;0.91;100.00;98783.34;7398572;19;20123;-50
2021/11/28 04:11:56;;;;;;;38.00;18.08;;;;;;;0.74;100.00;98789.25;7394896;19;20438;-49
2021/11/28 04:14:26;;;;;;;38.05;18.45;;;;;;;0.89;100.00;98790.03;7398931;19;20127;-49
2021/11/28 04:16:55;;;;;;;34.92;15.45;;;;;;;0.76;100.00;98785.13;7392075;19;20194;-48
2021/11/28 04:19:25;;;;;;;35.22;15.93;;;;;;;0.76;100.00;98788.53;7398531;19;20147;-47
2021/11/28 04:21:57;;;;;;;38.15;17.58;;;;;;;0.87;100.00;98781.44;7394499;19;20250;-49
2021/11/28 04:24:26;;;;;;;38.78;18.08;;;;;;;0.83;100.00;98788.84;7398594;19;20190;-47
2021/11/28 04:26:56;;;;;;;36.65;16.85;;;;;;;0.70;100.00;98778.09;7392669;19;20588;-43
2021/11/28 04:29:25;;;;;;;42.15;19.17;;;;;;;0.75;100.00;98786.81;7398178;19;20125;-52
2021/11/28 04:31:55;;;;;;;34.83;16.50;;;;;;;0.78;100.00;98778.47;7396583;19;20246;-48
2021/11/28 04:34:24;;;;;;;26.45;12.55;;;;;;;0.67;100.00;98783.03;7398356;19;20124;-45
2021/11/28 04:36:54;;;;;;;33.88;15.07;;;;;;;0.64;100.00;98788.81;7392819;19;20193;-52
2021/11/28 04:39:26;;;;;;;40.72;18.08;;;;;;;0.71;100.00;98789.13;7397856;19;20183;-48
2021/11/28 04:41:55;;;;;;;37.75;18.35;;;;;;;0.83;100.00;98787.19;7392925;19;20250;-45
2021/11/28 04:44:25;;;;;;;33.03;16.20;;;;;;;0.77;100.00;98784.34;7397897;19;20547;-47
2021/11/28 04:46:55;;;;;;;37.63;17.83;;;;;;;0.78;100.00;98788.63;7390929;19;20258;-49
2021/11/28 04:49:25;;;;;;;36.80;16.45;;;;;;;0.80;100.00;98779.41;7397734;19;20138;-45
2021/11/28 04:51:55;;;;;;;35.92;17.45;;;;;;;0.87;100.00;98789.06;7398297;19;20202;-44
2021/11/28 04:54:27;;;;;;;37.40;17.20;;;;;;;0.75;100.00;98791.88;7409625;19;20179;-50
2021/11/28 04:56:56;;;;;;;32.50;16.70;;;;;;;0.71;100.00;98789.97;7398193;19;20264;-51
2021/11/28 04:59:26;;;;;;;37.03;17.88;;;;;;;0.74;100.00;98795.22;7404644;19;20134;-46
2021/11/28 05:01:55;;;;;;;33.65;17.10;;;;;;;0.82;100.00;98798.13;7400920;19;20211;-48
2021/11/28 05:04:25;;;;;;;35.33;15.50;;;;;;;0.67;100.00;98804.19;7405045;19;20522;-49
2021/11/28 05:06:54;;;;;;;34.75;16.58;;;;;;;0.65;100.00;98795.63;7398746;19;20578;-52
2021/11/28 05:09:27;;;;;;;37.15;18.33;;;;;;;0.75;100.00;98801.16;7407528;19;20182;-47
2021/11/28 05:11:56;;;;;;;36.05;17.23;;;;;;;0.71;100.00;98801.81;7400167;19;20186;-51
2021/11/28 05:14:30;;;;;;;32.00;16.35;;;;;;;0.76;100.00;98807.97;7404570;19;20131;-48
2021/11/28 05:16:59;;;;;;;34.30;16.88;;;;;;;0.67;100.00;98810.94;7401425;19;20209;-45
2021/11/28 05:19:29;;;;;;;35.65;17.35;;;;;;;0.65;100.00;98810.88;7403991;19;20183;-50
2021/11/28 05:22:00;;;;;;;35.13;16.10;;;;;;;0.73;100.00;98813.78;7403258;19;20186;-46
2021/11/28 05:24:32;;;;;;;35.35;16.27;;;;;;;0.68;100.00;98807.63;7404175;19;20123;-48
2021/11/28 05:27:01;;;;;;;39.55;18.42;;;;;;;0.76;100.00;98815.59;7401107;19;20207;-48
2021/11/28 05:29:31;;;;;;;35.08;16.13;;;;;;;0.73;100.00;98812.91;7403655;19;20203;-43
2021/11/28 05:32:00;;;;;;;38.97;18.17;;;;;;;0.68;100.00;98820.31;7402993;19;20193;-45
2021/11/28 05:34:30;;;;;;;38.00;16.10;;;;;;;0.65;100.00;98821.03;7403681;19;20138;-46
2021/11/28 05:36:59;;;;;;;34.65;16.40;;;;;;;0.62;100.00;98818.31;7400615;19;20234;-47
2021/11/28 05:39:31;;;;;;;37.92;17.38;;;;;;;0.59;100.00;98818.16;7408105;19;20186;-49
2021/11/28 05:42:01;;;;;;;36.42;16.55;;;;;;;0.66;100.00;98817.69;7402914;19;20234;-44
2021/11/28 05:44:30;;;;;;;22.90;10.85;;;;;;;0.56;100.00;98824.75;7403558;19;20404;-47
2021/11/28 05:47:00;;;;;;;36.70;18.35;;;;;;;0.66;100.00;98821.88;7400830;19;20432;-45
2021/11/28 05:49:29;;;;;;;35.83;16.65;;;;;;;0.63;100.00;98825.16;7403062;19;20130;-44
2021/11/28 05:51:59;;;;;;;31.25;15.43;;;;;;;0.66;100.00;98822.75;7402288;19;20234;-49
2021/11/28 05:54:31;;;;;;;35.63;16.55;;;;;;;0.69;100.00;98821.16;7403234;19;20191;-43
2021/11/28 05:57:01;;;;;;;32.70;12.40;;;;;;;0.54;100.00;98827.22;7400298;19;20357;-45
2021/11/28 05:59:30;;;;;;;35.65;16.48;;;;;;;0.61;100.00;98824.19;7402530;19;20123;-47
2021/11/28 06:02:00;;;;;;;31.25;15.43;;;;;;;0.63;100.00;98824.28;7402331;19;20560;-46
2021/11/28 06:04:29;;;;;;;31.15;12.98;;;;;;;0.55;100.00;98820.50;7401813;19;20140;-48
2021/11/28 06:06:59;;;;;;;34.30;16.23;;;;;;;0.56;100.00;98815.47;7399703;19;20183;-44
2021/11/28 06:09:32;;;;;;;36.83;17.05;;;;;;;0.65;100.00;98822.69;7402163;19;20146;-46
2021/11/28 06:12:02;;;;;;;31.63;15.10;;;;;;;0.65;100.00;98821.03;7401511;19;20178;-43
2021/11/28 06:14:31;;;;;;;30.63;13.98;;;;;;;0.59;100.00;98818.16;7402478;19;20175;-48
2021/11/28 06:17:01;;;;;;;30.67;15.55;;;;;;;0.80;100.00;98813.31;7399945;19;20196;-48
2021/11/28 06:19:30;;;;;;;31.42;15.95;;;;;;;0.72;100.00;98821.31;7401942;19;20131;-47
2021/11/28 06:22:00;;;;;;;31.55;16.38;;;;;;;0.70;100.00;98818.69;7400728;19;20184;-46
2021/11/28 06:24:32;;;;;;;32.97;16.02;;;;;;;0.79;100.00;98825.91;7402431;19;20126;-47
2021/11/28 06:27:01;;;;;;;31.02;15.02;;;;;;;0.76;100.00;98823.19;7399233;19;20258;-45
2021/11/28 06:29:31;;;;;;;36.00;16.80;;;;;;;0.70;100.00;98822.91;7401589;19;20119;-43
2021/11/28 06:32:00;;;;;;;35.97;17.50;;;;;;;0.77;100.00;98830.06;7401109;19;20185;-47
2021/11/28 06:34:30;;;;;;;35.08;16.73;;;;;;;0.88;100.00;98825.50;7401742;19;20402;-46
2021/11/28 06:36:59;;;;;;;34.83;15.70;;;;;;;0.93;100.00;98826.59;7399841;19;20196;-47
2021/11/28 06:39:31;;;;;;;33.45;15.80;;;;;;;0.89;100.00;98833.22;7401500;19;21066;-50
2021/11/28 06:42:01;;;;;;;34.97;17.92;;;;;;;0.92;100.00;98825.72;7405128;19;20497;-47
2021/11/28 06:44:30;;;;;;;35.65;17.45;;;;;;;0.91;100.00;98831.59;7401463;19;20135;-48
2021/11/28 06:47:00;;;;;;;38.25;14.88;;;;;;;0.80;100.00;98836.16;7398801;19;20194;-50
2021/11/28 06:49:29;;;;;;;37.72;16.08;;;;;;;0.79;100.00;98825.91;7400877;19;20190;-49
2021/11/28 06:51:59;;;;;;;39.80;17.92;;;;;;;0.85;100.00;98833.84;7400317;19;20178;-48
2021/11/28 06:54:32;;;;;;;33.63;17.35;;;;;;;0.93;100.00;98832.53;7401225;19;20179;-45
2021/11/28 06:57:01;;;;;;;32.15;15.88;;;;;;;0.83;100.00;98829.47;7398624;19;20238;-47
2021/11/28 06:59:31;;;;;;;32.03;15.55;;;;;;;0.90;100.00;98829.88;7400648;19;20123;-46
2021/11/28 07:02:01;;;;;;;33.28;16.45;;;;;;;1.05;100.00;98832.28;7402958;19;20192;-47
2021/11/28 07:04:30;;;;;;;32.35;16.58;;;;;;;1.12;100.00;98830.91;7400598;19;20135;-47
2021/11/28 07:07:00;;;;;;;33.45;16.63;;;;;;;1.14;100.00;98846.22;7402399;19;20211;-45
2021/11/28 07:09:32;;;;;;;32.67;15.75;;;;;;;1.15;100.00;98842.88;7400124;19;20131;-46
2021/11/28 07:12:02;;;;;;;32.78;17.00;;;;;;;1.15;100.00;98847.97;7399771;19;20234;-48
2021/11/28 07:14:31;;;;;;;37.47;16.85;;;;;;;1.17;100.00;98852.31;7399890;19;20183;-45
2021/11/28 07:17:01;;;;;;;31.85;15.45;;;;;;;1.15;100.00;98851.41;7398182;19;20190;-45
2021/11/28 07:19:30;;;;;;;33.22;16.27;;;;;;;1.17;100.00;98853.97;7400090;19;20150;-45
2021/11/28 07:22:00;;;;;;;29.85;16.23;;;;;;;1.15;100.00;98871.72;7399266;19;20171;-47
2021/11/28 07:24:32;;;;;;;35.08;17.55;;;;;;;1.19;100.00;98865.97;7400236;19;20517;-52
2021/11/28 07:27:01;;;;;;;27.98;14.95;;;;;;;1.24;100.00;98866.22;7397604;19;20188;-48
2021/11/28 07:29:31;;;;;;;31.33;16.80;;;;;;;1.27;100.00;98861.28;7397832;19;20144;-47
2021/11/28 07:32:00;;;;;;;32.13;16.30;;;;;;;1.34;100.00;98870.06;7403070;19;20186;-48
2021/11/28 07:34:30;;;;;;;33.38;16.23;;;;;;;1.35;100.00;98875.22;7399932;19;20123;-49
2021/11/28 07:37:00;;;;;;;31.38;16.70;;;;;;;1.34;100.00;98875.16;7397335;19;20234;-46
2021/11/28 07:39:32;;;;;;;30.77;16.48;;;;;;;1.40;100.00;98874.56;7399250;19;20122;-48
2021/11/28 07:42:01;;;;;;;30.27;15.68;;;;;;;1.35;100.00;98876.91;7398765;19;20184;-51
2021/11/28 07:44:31;;;;;;;27.25;14.45;;;;;;;1.28;100.00;98869.78;7399301;19;20127;-53
2021/11/28 07:47:00;;;;;;;30.05;15.57;;;;;;;1.38;100.00;98871.94;7397374;19;20194;-50
2021/11/28 07:49:30;;;;;;;28.58;14.15;;;;;;;1.33;100.00;98873.41;7397968;19;20175;-49
2021/11/28 07:51:59;;;;;;;38.53;16.92;;;;;;;1.31;100.00;98873.34;7398481;19;20238;-47
2021/11/28 07:54:32;;;;;;;34.22;17.02;;;;;;;1.43;100.00;98874.72;7399441;19;20187;-50
2021/11/28 07:57:02;;;;;;;85.40;34.35;;;;;;;1.50;100.00;98874.22;7396804;19;20203;-50
2021/11/28 07:59:33;;;;;;;68.40;30.75;;;;;;;1.70;100.00;98877.69;7399283;19;20144;-45
2021/11/28 08:02:03;;;;;;;34.37;18.87;;;;;;;1.69;100.00;98883.59;7398279;19;20444;-44
2021/11/28 08:04:33;;;;;;;35.80;18.55;;;;;;;1.64;100.00;98882.47;7398830;19;20399;-50
2021/11/28 08:07:06;;;;;;;37.40;18.10;;;;;;;1.57;100.00;98886.44;7396407;19;20246;-47
2021/11/28 08:09:38;;;;;;;38.70;17.80;;;;;;;1.60;100.00;98889.09;7397863;19;20484;-47
2021/11/28 08:12:08;;;;;;;36.13;19.27;;;;;;;1.65;100.00;98891.88;7398373;19;20408;-44
2021/11/28 08:14:38;;;;;;;36.08;18.50;;;;;;;1.65;100.00;98891.88;7395535;19;20134;-47
2021/11/28 08:17:08;;;;;;;34.80;17.90;;;;;;;1.74;100.00;98891.41;7396532;19;20151;-49
2021/11/28 08:19:37;;;;;;;35.47;18.47;;;;;;;1.98;100.00;98896.81;7395016;19;20856;-49
2021/11/28 08:22:07;;;;;;;34.57;17.03;;;;;;;1.78;100.00;98897.56;7397968;19;20422;-49
2021/11/28 08:24:39;;;;;;;33.15;18.45;;;;;;;1.69;100.00;98895.44;7392336;19;20650;-49
2021/11/28 08:27:09;;;;;;;34.72;17.20;;;;;;;1.72;100.00;98899.00;7400903;19;20223;-48
2021/11/28 08:29:40;;;;;;;38.03;19.88;;;;;;;1.73;100.00;98899.84;7399237;19;20194;-47
2021/11/28 08:32:10;;;;;;;35.60;17.83;;;;;;;1.78;100.00;98907.72;7405286;19;20115;-47
2021/11/28 08:34:41;;;;;;;31.47;16.97;;;;;;;1.77;100.00;98908.50;7402190;19;20389;-47
2021/11/28 08:37:10;;;;;;;33.20;18.80;;;;;;;1.84;100.00;98908.88;7404655;19;20502;-49
2021/11/28 08:39:44;;;;;;;34.50;17.90;;;;;;;1.81;100.00;98908.75;7401142;19;20868;-46
2021/11/28 08:42:13;;;;;;;38.07;17.93;;;;;;;1.75;100.00;98914.38;7404759;19;20907;-44
2021/11/28 08:44:43;;;;;;;31.37;17.47;;;;;;;1.84;100.00;98913.09;7406052;19;20455;-44
2021/11/28 08:47:13;;;;;;;33.75;17.90;;;;;;;1.87;100.00;98913.22;7403110;19;20423;-44
2021/11/28 08:49:43;;;;;;;34.63;17.43;;;;;;;1.90;100.00;98913.38;7399799;19;20413;-44
2021/11/28 08:52:13;;;;;;;30.10;16.87;;;;;;;1.88;100.00;98915.84;7404770;19;20464;-47
2021/11/28 08:54:45;;;;;;;35.03;18.00;;;;;;;1.86;100.00;98917.44;7400782;19;20451;-44
2021/11/28 08:57:14;;;;;;;31.45;17.52;;;;;;;1.95;100.00;98914.44;7402365;19;20475;-43
2021/11/28 08:59:45;;;;;;;34.50;17.57;;;;;;;1.98;100.00;98914.63;7401146;19;20134;-49
2021/11/28 09:02:16;;;;;;;32.00;16.57;;;;;;;1.93;100.00;98921.16;7404511;19;20394;-47
2021/11/28 09:04:45;;;;;;;29.83;16.83;;;;;;;1.94;100.00;98912.72;7401507;19;20380;-46
2021/11/28 09:07:15;;;;;;;32.13;17.10;;;;;;;1.95;100.00;98922.09;7401971;19;20416;-46
2021/11/28 09:09:47;;;;;;;34.27;17.40;;;;;;;1.88;100.00;98917.50;7401301;19;20483;-46
2021/11/28 09:12:16;;;;;;;29.97;16.57;;;;;;;1.93;100.00;98918.59;7404102;19;20451;-44
2021/11/28 09:14:46;;;;;;;31.23;15.77;;;;;;;1.99;100.00;98920.56;7399223;19;20388;-45
2021/11/28 09:17:16;;;;;;;36.27;18.20;;;;;;;1.95;100.00;98922.09;7401871;19;20487;-44
2021/11/28 09:19:51;;;;;;;29.70;15.93;;;;;;;1.99;100.00;98920.56;7400644;19;20373;-43
2021/11/28 09:22:34;;;;;;;29.40;16.10;;;;;;;1.93;100.00;98927.91;7404103;19;20467;-44
2021/11/28 09:25:04;;;;;;;28.33;15.47;;;;;;;1.97;100.00;98923.03;7399049;19;20458;-43
2021/11/28 09:27:34;;;;;;;27.37;15.30;;;;;;;1.92;100.00;98932.13;7401177;19;20420;-43
2021/11/28 09:30:03;;;;;;;28.20;15.33;;;;;;;1.90;100.00;98931.19;7401891;19;20430;-47
2021/11/28 09:32:33;;;;;;;30.70;16.00;;;;;;;1.89;100.00;98926.88;7403677;19;20465;-44
2021/11/28 09:35:02;;;;;;;31.73;16.80;;;;;;;1.90;100.00;98931.19;7399818;19;20403;-45
2021/11/28 09:37:32;;;;;;;28.43;15.57;;;;;;;1.97;100.00;98928.13;7400856;19;20419;-44
2021/11/28 09:40:02;;;;;;;34.87;17.23;;;;;;;2.04;100.00;98925.88;7397825;19;20375;-47
2021/11/28 09:42:38;;;;;;;28.07;15.00;;;;;;;2.05;100.00;98922.53;7403356;19;20908;-44
2021/11/28 09:45:10;;;;;;;27.13;15.43;;;;;;;2.06;100.00;98919.19;7398768;19;21452;-44
2021/11/28 09:47:40;;;;;;;27.90;14.60;;;;;;;1.99;100.00;98915.47;7400618;19;20229;-44
2021/11/28 09:50:11;;;;;;;31.47;16.67;;;;;;;1.94;100.00;98912.72;7398251;19;20419;-46
2021/11/28 09:52:41;;;;;;;31.90;16.37;;;;;;;1.93;100.00;98908.44;7403253;19;20398;-45
2021/11/28 09:55:13;;;;;;;28.97;16.33;;;;;;;1.93;100.00;98905.88;7398657;19;20423;-45
2021/11/28 09:57:46;;;;;;;26.10;13.90;;;;;;;2.08;100.00;98913.38;7400199;19;20415;-46
2021/11/28 10:00:18;;;;;;;27.77;15.23;;;;;;;2.04;100.00;98910.63;7398998;19;20414;-44
2021/11/28 10:02:48;;;;;;;27.03;14.33;;;;;;;2.07;100.00;98904.00;7403100;19;20869;-46
2021/11/28 10:05:17;;;;;;;28.67;15.00;;;;;;;2.22;100.00;98906.38;7398588;19;20856;-46
2021/11/28 10:07:49;;;;;;;31.47;15.47;;;;;;;2.28;100.00;98904.09;7400657;19;20786;-46
2021/11/28 10:10:20;;;;;;;27.33;15.70;;;;;;;2.37;100.00;98900.22;7397920;19;20484;-43
2021/11/28 10:12:53;;;;;;;25.90;15.37;;;;;;;2.40;100.00;98913.06;7402590;19;20423;-46
2021/11/28 10:15:25;;;;;;;27.03;15.10;;;;;;;2.40;100.00;98908.88;7398020;19;20426;-44
2021/11/28 10:17:54;;;;;;;29.50;15.07;;;;;;;2.49;100.00;98905.84;7401421;19;20439;-46
2021/11/28 10:20:27;;;;;;;27.33;15.40;;;;;;;2.44;100.00;98912.41;7398259;19;20416;-48
2021/11/28 10:22:57;;;;;;;62.17;33.13;;;;;;;2.51;100.00;98914.44;7402341;19;20392;-46
2021/11/28 10:25:29;;;;;;;53.67;26.63;;;;;;;3.12;100.00;98908.50;7397453;19;20732;-44
2021/11/28 10:28:09;;;;;;;38.47;21.37;;;;;;;3.31;100.00;98905.03;7399994;19;20437;-45
2021/11/28 10:30:40;;;;;;;71.70;36.17;;;;;;;3.02;100.00;98899.63;7394860;19;20751;-45
2021/11/28 10:33:13;;;;;;;22.73;12.67;;;;;;;2.54;100.00;98906.06;7401959;19;20392;-45
2021/11/28 10:36:02;;;;;;;22.97;12.80;;;;;;;2.38;100.00;98907.94;7398741;19;20464;-44
2021/11/28 10:38:36;;;;;;;20.83;12.30;;;;;;;2.51;100.00;98899.16;7401636;19;20392;-45
2021/11/28 10:41:20;;;;;;;19.97;12.00;;;;;;;2.50;100.00;98896.53;7401044;19;20507;-45
2021/11/28 10:43:52;;;;;;;28.03;12.93;;;;;;;2.35;100.00;98892.50;7401550;19;20392;-45
2021/11/28 10:46:27;;;;;;;23.30;12.33;;;;;;;2.32;100.00;98888.94;7395144;19;20727;-44
2021/11/28 10:49:08;;;;;;;21.37;12.90;;;;;;;2.27;100.00;98889.59;7400205;19;20395;-43
2021/11/28 10:51:40;;;;;;;21.80;11.50;;;;;;;2.43;100.00;98892.84;7397479;19;20441;-48
2021/11/28 10:54:26;;;;;;;24.00;13.47;;;;;;;2.42;100.00;98891.13;7401586;19;20700;-46
2021/11/28 10:57:19;;;;;;;26.33;13.73;;;;;;;2.49;100.00;98887.16;7395756;19;20417;-49
2021/11/28 11:00:00;;;;;;;24.93;14.33;;;;;;;2.50;100.00;98891.44;7397485;19;20387;-44
2021/11/28 11:02:32;;;;;;;20.27;11.97;;;;;;;2.66;100.00;98893.00;7401077;19;20452;-46
2021/11/28 11:05:04;;;;;;;22.93;13.30;;;;;;;2.67;100.00;98899.84;7397072;19;20420;-49
2021/11/28 11:07:54;;;;;;;22.27;13.27;;;;;;;2.73;100.00;98896.69;7399027;19;20412;-49
2021/11/28 11:10:26;;;;;;;25.17;14.50;;;;;;;2.66;100.00;98901.50;7396022;19;20430;-46
2021/11/28 11:12:57;;;;;;;23.77;13.37;;;;;;;2.83;100.00;98902.22;7404596;19;20890;-44
2021/11/28 11:15:38;;;;;;;23.43;13.93;;;;;;;2.58;100.00;98907.94;7395211;19;20407;-45
2021/11/28 11:18:10;;;;;;;23.70;12.83;;;;;;;2.67;100.00;98913.44;7398382;19;20448;-49
2021/11/28 11:20:41;;;;;;;28.20;14.10;;;;;;;2.67;100.00;98910.03;7396549;19;20425;-50
2021/11/28 11:23:39;;;;;;;22.43;13.17;;;;;;;2.85;100.00;98907.41;7400279;19;20395;-50
2021/11/28 11:26:21;;;;;;;24.90;13.57;;;;;;;2.84;100.00;98911.59;7395394;19;20450;-48
2021/11/28 11:29:10;;;;;;;26.20;14.10;;;;;;;2.75;100.00;98915.44;7400255;19;20866;-48
2021/11/28 11:31:44;;;;;;;24.20;13.57;;;;;;;2.78;100.00;98908.78;7399306;19;20443;-47
2021/11/28 11:34:24;;;;;;;35.60;18.60;;;;;;;3.03;100.00;98903.91;7399799;19;20447;-46